createdAt,value
2022-11-20T00:00:19.017Z,9.20
2022-11-20T00:02:45.698Z,9.20
2022-11-20T00:05:12.354Z,9.20
2022-11-20T00:07:39.057Z,9.20
2022-11-20T00:10:06.199Z,9.20
2022-11-20T00:12:32.876Z,9.20
2022-11-20T00:14:59.672Z,9.20
2022-11-20T00:17:26.358Z,9.20
2022-11-20T00:19:52.983Z,9.20
2022-11-20T00:22:19.647Z,9.20
2022-11-20T00:24:46.316Z,9.20
2022-11-20T00:27:13.035Z,9.20
2022-11-20T00:29:39.723Z,9.20
2022-11-20T00:32:06.363Z,9.20
2022-11-20T00:34:33.021Z,9.20
2022-11-20T00:36:59.700Z,9.20
2022-11-20T00:39:26.345Z,9.20
2022-11-20T00:41:53.077Z,9.20
2022-11-20T00:44:19.811Z,9.20
2022-11-20T00:46:46.456Z,9.10
2022-11-20T00:49:13.076Z,10.10
2022-11-20T00:51:39.747Z,9.10
2022-11-20T00:54:06.572Z,9.10
2022-11-20T00:56:33.199Z,9.10
2022-11-20T00:59:01.667Z,9.10
2022-11-20T01:01:30.424Z,9.20
2022-11-20T01:03:59.455Z,9.10
2022-11-20T01:06:29.216Z,9.20
2022-11-20T01:08:59.124Z,9.20
2022-11-20T01:11:34.680Z,9.20
2022-11-20T01:14:02.803Z,9.10
2022-11-20T01:16:32.586Z,9.10
2022-11-20T01:19:01.740Z,9.10
2022-11-20T01:21:31.266Z,9.10
2022-11-20T01:23:58.418Z,9.10
2022-11-20T01:26:27.876Z,9.10
2022-11-20T01:28:55.254Z,9.10
2022-11-20T01:31:27.457Z,9.10
2022-11-20T01:33:56.415Z,9.20
2022-11-20T01:36:25.203Z,9.30
2022-11-20T01:39:01.134Z,9.10
2022-11-20T01:41:49.478Z,9.10
2022-11-20T01:44:18.303Z,9.10
2022-11-20T01:46:59.663Z,9.10
2022-11-20T01:49:39.690Z,9.10
2022-11-20T01:52:12.088Z,9.00
2022-11-20T01:54:48.838Z,9.00
2022-11-20T01:57:16.760Z,9.00
2022-11-20T01:59:47.972Z,9.00
2022-11-20T02:02:15.356Z,9.00
2022-11-20T02:04:42.334Z,9.00
2022-11-20T02:07:09.438Z,8.90
2022-11-20T02:09:36.132Z,8.90
2022-11-20T02:12:02.827Z,8.90
2022-11-20T02:14:30.436Z,8.90
2022-11-20T02:16:57.659Z,8.90
2022-11-20T02:19:31.773Z,8.90
2022-11-20T02:22:09.143Z,8.90
2022-11-20T02:24:35.816Z,8.80
2022-11-20T02:27:08.915Z,8.90
2022-11-20T02:29:46.271Z,8.80
2022-11-20T02:32:26.602Z,8.70
2022-11-20T02:34:53.420Z,8.70
2022-11-20T02:37:21.120Z,8.70
2022-11-20T02:39:49.685Z,8.70
2022-11-20T02:42:16.287Z,8.70
2022-11-20T02:44:42.913Z,8.70
2022-11-20T02:47:09.866Z,8.70
2022-11-20T02:49:36.508Z,8.70
2022-11-20T02:52:03.300Z,8.70
2022-11-20T02:54:30.006Z,8.70
2022-11-20T02:56:56.619Z,8.70
2022-11-20T02:59:23.668Z,8.60
2022-11-20T03:01:50.444Z,8.60
2022-11-20T03:04:17.075Z,8.60
2022-11-20T03:06:43.735Z,8.60
2022-11-20T03:09:10.437Z,8.60
2022-11-20T03:11:37.046Z,8.60
2022-11-20T03:14:05.275Z,8.60
2022-11-20T03:16:33.521Z,8.60
2022-11-20T03:19:00.360Z,8.60
2022-11-20T03:21:27.249Z,8.60
2022-11-20T03:23:55.133Z,8.60
2022-11-20T03:26:24.366Z,8.60
2022-11-20T03:28:59.940Z,8.60
2022-11-20T03:31:35.218Z,8.60
2022-11-20T03:34:02.612Z,8.60
2022-11-20T03:36:29.675Z,8.60
2022-11-20T03:38:57.145Z,8.60
2022-11-20T03:41:26.038Z,8.60
2022-11-20T03:44:01.641Z,8.60
2022-11-20T03:46:29.078Z,8.60
2022-11-20T03:48:56.147Z,8.60
2022-11-20T03:51:25.379Z,8.60
2022-11-20T03:53:54.342Z,8.60
2022-11-20T03:56:26.246Z,8.60
2022-11-20T03:58:52.977Z,8.60
2022-11-20T04:01:27.910Z,8.60
2022-11-20T04:03:55.921Z,8.60
2022-11-20T04:06:28.569Z,8.60
2022-11-20T04:08:56.560Z,8.60
2022-11-20T04:11:27.120Z,8.60
2022-11-20T04:13:58.908Z,8.60
2022-11-20T04:16:26.502Z,8.60
2022-11-20T04:18:58.741Z,8.60
2022-11-20T04:21:26.146Z,8.50
2022-11-20T04:23:53.927Z,8.50
2022-11-20T04:26:21.948Z,8.60
2022-11-20T04:28:48.770Z,8.50
2022-11-20T04:31:23.785Z,8.50
2022-11-20T04:33:50.829Z,8.50
2022-11-20T04:36:22.704Z,8.50
2022-11-20T04:38:57.534Z,8.50
2022-11-20T04:41:29.684Z,8.50
2022-11-20T04:44:04.087Z,8.50
2022-11-20T04:46:34.042Z,8.60
2022-11-20T04:49:00.877Z,8.50
2022-11-20T04:51:27.884Z,8.50
2022-11-20T04:53:54.769Z,8.50
2022-11-20T04:56:21.502Z,8.50
2022-11-20T04:58:48.123Z,8.50
2022-11-20T05:01:17.477Z,8.40
2022-11-20T05:03:45.011Z,8.50
2022-11-20T05:06:14.094Z,8.50
2022-11-20T05:08:41.372Z,8.50
2022-11-20T05:11:10.844Z,8.50
2022-11-20T05:13:38.242Z,8.50
2022-11-20T05:16:10.471Z,8.50
2022-11-20T05:18:38.134Z,8.50
2022-11-20T05:21:05.495Z,8.50
2022-11-20T05:23:32.543Z,8.40
2022-11-20T05:25:59.855Z,8.90
2022-11-20T05:28:27.901Z,8.40
2022-11-20T05:30:54.836Z,8.40
2022-11-20T05:33:21.810Z,9.40
2022-11-20T05:35:49.503Z,8.40
2022-11-20T05:38:16.690Z,8.40
2022-11-20T05:40:43.315Z,8.40
2022-11-20T05:43:09.960Z,8.40
2022-11-20T05:45:36.668Z,8.40
2022-11-20T05:48:03.475Z,8.40
2022-11-20T05:50:30.290Z,8.40
2022-11-20T05:52:59.807Z,8.40
2022-11-20T05:55:27.076Z,8.50
2022-11-20T05:57:55.658Z,8.50
2022-11-20T06:00:22.836Z,8.50
2022-11-20T06:02:49.549Z,8.40
2022-11-20T06:05:16.358Z,8.40
2022-11-20T06:07:43.134Z,8.50
2022-11-20T06:10:10.201Z,8.50
2022-11-20T06:12:36.823Z,9.10
2022-11-20T06:15:04.649Z,8.40
2022-11-20T06:17:31.297Z,8.40
2022-11-20T06:19:57.893Z,8.40
2022-11-20T06:22:24.560Z,8.40
2022-11-20T06:24:51.173Z,8.50
2022-11-20T06:27:17.940Z,8.50
2022-11-20T06:29:44.701Z,8.40
2022-11-20T06:32:11.334Z,8.40
2022-11-20T06:34:37.953Z,8.40
2022-11-20T06:37:04.563Z,8.40
2022-11-20T06:39:31.260Z,8.50
2022-11-20T06:41:59.212Z,8.40
2022-11-20T06:44:26.370Z,8.50
2022-11-20T06:46:53.024Z,8.60
2022-11-20T06:49:20.092Z,8.50
2022-11-20T06:51:46.954Z,8.50
2022-11-20T06:54:13.616Z,8.50
2022-11-20T06:56:40.300Z,8.60
2022-11-20T06:59:07.638Z,8.50
2022-11-20T07:01:34.664Z,8.50
2022-11-20T07:04:01.360Z,8.50
2022-11-20T07:06:28.214Z,8.50
2022-11-20T07:08:54.876Z,8.50
2022-11-20T07:11:21.519Z,8.60
2022-11-20T07:13:48.239Z,8.50
2022-11-20T07:16:14.853Z,8.50
2022-11-20T07:18:44.731Z,8.50
2022-11-20T07:21:14.126Z,8.50
2022-11-20T07:23:40.793Z,8.50
2022-11-20T07:26:09.716Z,8.60
2022-11-20T07:28:36.875Z,8.60
2022-11-20T07:31:04.043Z,8.60
2022-11-20T07:33:31.296Z,8.60
2022-11-20T07:36:00.933Z,8.60
2022-11-20T07:38:27.652Z,9.30
2022-11-20T07:40:58.578Z,9.10
2022-11-20T07:43:26.288Z,8.60
2022-11-20T07:45:53.142Z,8.60
2022-11-20T07:48:19.824Z,8.60
2022-11-20T07:50:46.612Z,9.40
2022-11-20T07:53:14.732Z,9.00
2022-11-20T07:55:41.404Z,8.60
2022-11-20T07:58:08.085Z,9.70
2022-11-20T08:00:34.831Z,8.60
2022-11-20T08:03:05.317Z,8.60
2022-11-20T08:05:32.089Z,8.60
2022-11-20T08:07:58.720Z,8.60
2022-11-20T08:10:25.865Z,8.60
2022-11-20T08:13:12.217Z,8.60
2022-11-20T08:15:40.269Z,8.60
2022-11-20T08:18:30.123Z,8.60
2022-11-20T08:20:55.645Z,8.60
2022-11-20T08:23:23.938Z,9.40
2022-11-20T08:25:52.096Z,9.50
2022-11-20T08:28:21.693Z,8.60
2022-11-20T08:30:49.618Z,8.70
2022-11-20T08:33:16.312Z,8.60
2022-11-20T08:35:43.928Z,9.40
2022-11-20T08:38:10.703Z,8.70
2022-11-20T08:40:37.423Z,8.70
2022-11-20T08:43:04.053Z,8.70
2022-11-20T08:45:34.099Z,8.80
2022-11-20T08:48:05.314Z,8.80
2022-11-20T08:50:33.334Z,8.80
2022-11-20T08:53:07.008Z,8.80
2022-11-20T08:55:36.265Z,8.90
2022-11-20T08:58:06.607Z,8.90
2022-11-20T09:00:34.434Z,8.90
2022-11-20T09:03:02.278Z,8.90
2022-11-20T09:05:29.884Z,9.00
2022-11-20T09:08:00.111Z,8.90
2022-11-20T09:10:30.120Z,9.70
2022-11-20T09:12:56.996Z,9.00
2022-11-20T09:15:24.889Z,9.00
2022-11-20T09:18:02.626Z,9.00
2022-11-20T09:20:30.930Z,9.10
2022-11-20T09:22:58.338Z,9.10
2022-11-20T09:25:25.169Z,9.20
2022-11-20T09:27:59.178Z,9.70
2022-11-20T09:30:26.673Z,9.10
2022-11-20T09:32:53.656Z,10.30
2022-11-20T09:35:20.573Z,9.20
2022-11-20T09:37:47.194Z,9.40
2022-11-20T09:40:25.561Z,9.20
2022-11-20T09:43:36.401Z,8.40
2022-11-20T09:46:22.472Z,9.30
2022-11-20T09:49:04.529Z,9.20
2022-11-20T09:51:55.759Z,9.30
2022-11-20T09:54:27.579Z,9.30
2022-11-20T09:57:03.471Z,9.80
2022-11-20T09:59:50.711Z,9.30
2022-11-20T10:02:17.475Z,9.40
2022-11-20T10:04:57.064Z,9.40
2022-11-20T10:08:00.005Z,9.40
2022-11-20T10:10:44.262Z,9.30
2022-11-20T10:13:17.476Z,9.30
2022-11-20T10:15:53.026Z,9.40
2022-11-20T10:18:36.457Z,9.30
2022-11-20T10:21:12.146Z,9.40
2022-11-20T10:24:00.531Z,9.40
2022-11-20T10:26:37.549Z,9.40
2022-11-20T10:29:13.834Z,9.40
2022-11-20T10:31:44.793Z,9.40
2022-11-20T10:34:34.509Z,9.30
2022-11-20T10:37:06.929Z,9.40
2022-11-20T10:39:43.057Z,9.40
2022-11-20T10:42:17.236Z,9.40
2022-11-20T10:45:06.160Z,10.50
2022-11-20T10:47:34.238Z,9.40
2022-11-20T10:50:06.214Z,9.40
2022-11-20T10:52:59.059Z,9.40
2022-11-20T10:55:45.915Z,9.40
2022-11-20T10:58:35.576Z,9.40
2022-11-20T11:01:06.667Z,9.40
2022-11-20T11:03:33.967Z,9.40
2022-11-20T11:06:18.622Z,9.40
2022-11-20T11:08:46.076Z,9.40
2022-11-20T11:11:23.359Z,9.40
2022-11-20T11:13:50.559Z,10.00
2022-11-20T11:16:24.729Z,9.50
2022-11-20T11:18:52.016Z,9.50
2022-11-20T11:21:26.151Z,9.50
2022-11-20T11:24:19.933Z,9.70
2022-11-20T11:27:00.791Z,9.60
2022-11-20T11:29:27.952Z,9.50
2022-11-20T11:32:08.228Z,9.60
2022-11-20T11:34:35.023Z,9.60
2022-11-20T11:37:04.310Z,11.40
2022-11-20T11:39:32.291Z,11.60
2022-11-20T11:41:59.965Z,9.70
2022-11-20T11:44:51.174Z,9.70
2022-11-20T11:47:24.827Z,9.80
2022-11-20T11:50:10.884Z,9.80
2022-11-20T11:53:16.907Z,9.80
2022-11-20T11:55:57.953Z,9.80
2022-11-20T11:59:03.134Z,9.80
2022-11-20T12:01:50.303Z,9.90
2022-11-20T12:04:51.752Z,10.20
2022-11-20T12:07:46.680Z,10.00
2022-11-20T12:10:39.315Z,10.00
2022-11-20T12:13:16.472Z,10.10
2022-11-20T12:15:46.064Z,10.20
2022-11-20T12:18:21.253Z,10.30
2022-11-20T12:21:08.693Z,10.40
2022-11-20T12:23:52.772Z,10.50
2022-11-20T12:26:38.330Z,10.60
2022-11-20T12:29:19.586Z,10.60
2022-11-20T12:31:52.173Z,10.80
2022-11-20T12:34:25.016Z,10.80
2022-11-20T12:37:23.390Z,10.80
2022-11-20T12:39:53.832Z,10.90
2022-11-20T12:42:51.483Z,11.00
2022-11-20T12:45:29.971Z,11.10
2022-11-20T12:48:18.031Z,11.10
2022-11-20T12:51:19.839Z,11.00
2022-11-20T12:54:12.706Z,10.90
2022-11-20T12:57:20.675Z,10.80
2022-11-20T13:00:09.031Z,10.80
2022-11-20T13:02:46.119Z,10.30
2022-11-20T13:05:20.999Z,10.90
2022-11-20T13:07:49.234Z,10.80
2022-11-20T13:10:32.565Z,10.80
2022-11-20T13:13:22.228Z,10.90
2022-11-20T13:16:06.202Z,10.80
2022-11-20T13:18:40.044Z,10.80
2022-11-20T13:21:21.522Z,10.80
2022-11-20T13:23:48.282Z,10.80
2022-11-20T13:26:23.283Z,10.80
2022-11-20T13:29:09.437Z,10.90
2022-11-20T13:31:37.983Z,10.90
2022-11-20T13:34:07.154Z,10.90
2022-11-20T13:36:35.880Z,10.90
2022-11-20T13:39:02.882Z,10.80
2022-11-20T13:41:40.919Z,10.90
2022-11-20T13:44:15.287Z,10.80
2022-11-20T13:46:45.347Z,10.80
2022-11-20T13:49:21.327Z,10.80
2022-11-20T13:51:51.632Z,10.80
2022-11-20T13:54:52.458Z,10.80
2022-11-20T13:58:00.980Z,10.80
2022-11-20T14:00:27.945Z,10.80
2022-11-20T14:03:05.915Z,10.80
2022-11-20T14:05:36.174Z,10.80
2022-11-20T14:08:05.320Z,10.90
2022-11-20T14:10:32.711Z,10.80
2022-11-20T14:13:00.021Z,10.80
2022-11-20T14:15:31.864Z,10.80
2022-11-20T14:17:59.436Z,10.80
2022-11-20T14:20:28.945Z,10.80
2022-11-20T14:22:56.795Z,10.80
2022-11-20T14:25:28.107Z,10.80
2022-11-20T14:28:02.485Z,12.00
2022-11-20T14:30:43.305Z,10.80
2022-11-20T14:33:12.200Z,10.80
2022-11-20T14:35:51.699Z,10.70
2022-11-20T14:38:20.005Z,10.80
2022-11-20T14:40:46.847Z,10.80
2022-11-20T14:43:33.521Z,10.80
2022-11-20T14:46:03.195Z,10.80
2022-11-20T14:48:46.399Z,10.80
2022-11-20T14:51:27.087Z,10.80
2022-11-20T14:53:53.857Z,10.80
2022-11-20T14:56:25.076Z,10.70
2022-11-20T14:59:01.145Z,10.70
2022-11-20T15:01:30.124Z,10.70
2022-11-20T15:04:12.136Z,10.70
2022-11-20T15:06:49.505Z,10.80
2022-11-20T15:09:16.992Z,10.80
2022-11-20T15:11:57.353Z,10.80
2022-11-20T15:14:25.537Z,10.80
2022-11-20T15:16:53.169Z,10.70
2022-11-20T15:20:00.714Z,10.70
2022-11-20T15:22:27.735Z,10.90
2022-11-20T15:24:54.912Z,10.90
2022-11-20T15:27:22.221Z,10.60
2022-11-20T15:29:56.047Z,10.80
2022-11-20T15:32:23.057Z,11.80
2022-11-20T15:34:49.784Z,10.60
2022-11-20T15:37:16.782Z,12.30
2022-11-20T15:39:43.621Z,10.60
2022-11-20T15:42:10.386Z,10.80
2022-11-20T15:44:37.311Z,11.80
2022-11-20T15:47:06.174Z,13.10
2022-11-20T15:49:39.916Z,10.60
2022-11-20T15:52:09.376Z,10.60
2022-11-20T15:54:36.239Z,10.70
2022-11-20T15:57:03.889Z,11.00
2022-11-20T15:59:30.742Z,11.50
2022-11-20T16:02:02.903Z,10.40
2022-11-20T16:04:34.716Z,10.40
2022-11-20T16:07:05.473Z,10.40
2022-11-20T16:09:32.565Z,10.40
2022-11-20T16:12:02.415Z,10.10
2022-11-20T16:14:57.218Z,12.50
2022-11-20T16:21:03.414Z,10.40
2022-11-20T16:23:30.667Z,10.60
2022-11-20T16:26:06.925Z,11.20
2022-11-20T16:28:35.600Z,12.20
2022-11-20T16:31:13.155Z,10.30
2022-11-20T16:33:42.399Z,8.80
2022-11-20T16:36:16.119Z,10.10
2022-11-20T16:38:52.904Z,11.70
2022-11-20T16:41:23.555Z,10.20
2022-11-20T16:43:58.140Z,10.90
2022-11-20T16:46:30.340Z,10.20
2022-11-20T16:49:04.049Z,12.20
2022-11-20T16:51:34.144Z,10.20
2022-11-20T16:54:09.085Z,10.30
2022-11-20T16:56:36.302Z,10.40
2022-11-20T16:59:03.087Z,10.30
2022-11-20T17:01:31.376Z,10.30
2022-11-20T17:04:03.456Z,11.80
2022-11-20T17:06:41.998Z,12.30
2022-11-20T17:09:09.660Z,10.20
2022-11-20T17:11:37.496Z,11.20
2022-11-20T17:14:06.802Z,10.00
2022-11-20T17:16:38.333Z,10.30
2022-11-20T17:19:11.941Z,12.50
2022-11-20T17:21:39.741Z,10.00
2022-11-20T17:24:11.655Z,10.00
2022-11-20T17:26:40.476Z,10.00
2022-11-20T17:29:15.633Z,9.90
2022-11-20T17:31:43.408Z,9.90
2022-11-20T17:34:14.751Z,12.00
2022-11-20T17:36:45.208Z,12.50
2022-11-20T17:39:16.748Z,10.70
2022-11-20T17:41:43.713Z,10.60
2022-11-20T17:44:11.859Z,9.70
2022-11-20T17:46:38.748Z,10.00
2022-11-20T17:49:05.513Z,11.40
2022-11-20T17:51:35.031Z,12.00
2022-11-20T17:54:04.400Z,9.80
2022-11-20T17:56:51.948Z,9.80
2022-11-20T17:59:19.012Z,10.90
2022-11-20T18:01:45.866Z,12.40
2022-11-20T18:04:13.219Z,9.80
2022-11-20T18:06:40.252Z,9.90
2022-11-20T18:09:07.526Z,9.80
2022-11-20T18:11:36.177Z,9.70
2022-11-20T18:14:24.313Z,9.80
2022-11-20T18:16:56.412Z,9.80
2022-11-20T18:19:29.862Z,9.70
2022-11-20T18:22:01.255Z,9.70
2022-11-20T18:24:28.315Z,9.80
2022-11-20T18:26:54.966Z,9.80
2022-11-20T18:29:22.258Z,10.10
2022-11-20T18:31:49.345Z,9.70
2022-11-20T18:34:16.380Z,9.80
2022-11-20T18:36:43.373Z,9.70
2022-11-20T18:39:12.149Z,10.30
2022-11-20T18:41:57.723Z,9.70
2022-11-20T18:44:45.476Z,12.00
2022-11-20T18:47:15.892Z,9.70
2022-11-20T18:49:52.280Z,9.60
2022-11-20T18:52:21.695Z,10.50
2022-11-20T18:54:48.527Z,10.30
2022-11-20T18:57:17.796Z,9.60
2022-11-20T18:59:44.660Z,9.60
2022-11-20T19:02:13.313Z,9.60
2022-11-20T19:04:40.071Z,9.60
2022-11-20T19:07:07.307Z,10.20
2022-11-20T19:09:34.265Z,9.50
2022-11-20T19:12:01.057Z,9.50
2022-11-20T19:14:30.813Z,9.50
2022-11-20T19:16:57.688Z,9.70
2022-11-20T19:19:24.563Z,9.60
2022-11-20T19:21:52.396Z,9.60
2022-11-20T19:24:19.108Z,9.50
2022-11-20T19:26:45.784Z,9.50
2022-11-20T19:29:14.534Z,9.60
2022-11-20T19:31:42.473Z,9.50
2022-11-20T19:34:09.675Z,9.50
2022-11-20T19:36:43.218Z,9.50
2022-11-20T19:39:11.745Z,9.50
2022-11-20T19:41:39.924Z,9.40
2022-11-20T19:44:14.636Z,9.70
2022-11-20T19:47:14.458Z,9.60
2022-11-20T19:49:42.135Z,9.50
2022-11-20T19:52:08.761Z,9.60
2022-11-20T19:54:35.471Z,9.60
2022-11-20T19:57:02.300Z,9.70
2022-11-20T19:59:29.158Z,9.70
2022-11-20T20:01:56.084Z,9.60
2022-11-20T20:04:22.818Z,10.00
2022-11-20T20:06:50.716Z,9.50
2022-11-20T20:09:17.465Z,10.20
2022-11-20T20:11:48.055Z,9.50
2022-11-20T20:14:15.911Z,10.60
2022-11-20T20:16:43.047Z,9.50
2022-11-20T20:19:14.674Z,9.50
2022-11-20T20:21:41.849Z,9.50
2022-11-20T20:24:10.621Z,9.50
2022-11-20T20:26:37.659Z,12.00
2022-11-20T20:29:04.467Z,10.70
2022-11-20T20:31:32.353Z,9.40
2022-11-20T20:33:59.687Z,9.80
2022-11-20T20:36:26.830Z,11.10
2022-11-20T20:38:56.966Z,10.10
2022-11-20T20:41:24.946Z,10.40
2022-11-20T20:44:11.306Z,9.40
2022-11-20T20:46:38.039Z,9.30
2022-11-20T20:49:04.905Z,9.70
2022-11-20T20:51:31.966Z,9.40
2022-11-20T20:53:59.419Z,9.30
2022-11-20T20:56:27.976Z,9.30
2022-11-20T20:58:54.666Z,10.90
2022-11-20T21:01:22.761Z,9.30
2022-11-20T21:03:49.570Z,9.80
2022-11-20T21:06:16.233Z,9.20
2022-11-20T21:08:44.396Z,9.20
2022-11-20T21:11:14.400Z,9.20
2022-11-20T21:13:42.909Z,10.30
2022-11-20T21:16:10.613Z,9.60
2022-11-20T21:18:37.247Z,9.20
2022-11-20T21:21:26.988Z,9.20
2022-11-20T21:23:53.818Z,9.20
2022-11-20T21:26:20.992Z,9.10
2022-11-20T21:28:47.937Z,10.10
2022-11-20T21:31:22.039Z,9.10
2022-11-20T21:33:50.589Z,9.10
2022-11-20T21:36:19.198Z,9.10
2022-11-20T21:38:46.853Z,9.20
2022-11-20T21:41:15.561Z,9.20
2022-11-20T21:43:45.716Z,9.10
2022-11-20T21:46:15.848Z,9.10
2022-11-20T21:48:44.103Z,9.10
2022-11-20T21:51:18.761Z,9.10
2022-11-20T21:53:46.790Z,9.10
2022-11-20T21:56:19.947Z,9.00
2022-11-20T21:58:47.453Z,9.10
2022-11-20T22:01:25.488Z,9.10
2022-11-20T22:03:57.431Z,9.10
2022-11-20T22:06:25.786Z,9.00
2022-11-20T22:08:52.550Z,9.10
2022-11-20T22:11:20.750Z,9.00
2022-11-20T22:14:06.562Z,9.00
2022-11-20T22:16:34.760Z,9.10
2022-11-20T22:19:01.560Z,9.00
2022-11-20T22:21:29.798Z,9.00
2022-11-20T22:23:56.798Z,8.90
2022-11-20T22:26:28.744Z,9.00
2022-11-20T22:28:57.156Z,9.00
2022-11-20T22:31:25.249Z,9.00
2022-11-20T22:33:52.000Z,9.00
2022-11-20T22:36:26.146Z,9.00
2022-11-20T22:38:52.888Z,9.00
2022-11-20T22:41:25.097Z,9.00
2022-11-20T22:43:55.295Z,9.00
2022-11-20T22:46:22.053Z,9.00
2022-11-20T22:48:56.717Z,9.00
2022-11-20T22:51:29.131Z,9.00
2022-11-20T22:53:55.913Z,9.00
2022-11-20T22:56:22.926Z,8.90
2022-11-20T22:58:50.974Z,9.00
2022-11-20T23:01:26.020Z,8.80
2022-11-20T23:03:55.812Z,9.00
2022-11-20T23:06:23.245Z,8.90
2022-11-20T23:08:50.387Z,8.90
2022-11-20T23:11:25.420Z,8.90
2022-11-20T23:14:00.353Z,8.90
2022-11-20T23:16:29.023Z,8.80
2022-11-20T23:19:07.562Z,8.80
2022-11-20T23:21:35.733Z,8.90
2022-11-20T23:24:02.546Z,8.80
2022-11-20T23:26:31.796Z,8.80
2022-11-20T23:28:59.699Z,8.80
2022-11-20T23:31:27.981Z,8.70
2022-11-20T23:33:54.632Z,8.80
2022-11-20T23:36:21.351Z,8.80
2022-11-20T23:38:48.051Z,8.70
2022-11-20T23:41:14.858Z,8.70
2022-11-20T23:43:41.647Z,8.70
2022-11-20T23:46:11.440Z,8.70
2022-11-20T23:48:40.461Z,8.70
2022-11-20T23:51:07.406Z,8.70
2022-11-20T23:53:34.345Z,8.80
2022-11-20T23:56:04.044Z,8.70
2022-11-20T23:58:35.904Z,8.60
